sensor_id;sensor_type;location;lat;lon;timestamp;P1;durP1;ratioP1;P2;durP2;ratioP2
39958;SDS011;25639;53.634;9.880;2023-04-24T00:01:45;19.02;;;9.80;;
39958;SDS011;25639;53.634;9.880;2023-04-24T00:04:10;12.57;;;10.10;;
39958;SDS011;25639;53.634;9.880;2023-04-24T00:06:36;16.70;;;9.98;;
39958;SDS011;25639;53.634;9.880;2023-04-24T00:09:02;13.85;;;9.95;;
39958;SDS011;25639;53.634;9.880;2023-04-24T00:11:28;16.00;;;10.25;;
39958;SDS011;25639;53.634;9.880;2023-04-24T00:13:55;14.20;;;10.25;;
39958;SDS011;25639;53.634;9.880;2023-04-24T00:16:21;15.70;;;10.52;;
39958;SDS011;25639;53.634;9.880;2023-04-24T00:18:46;15.23;;;9.82;;
39958;SDS011;25639;53.634;9.880;2023-04-24T00:21:12;13.32;;;10.18;;
39958;SDS011;25639;53.634;9.880;2023-04-24T00:23:38;14.00;;;9.55;;
39958;SDS011;25639;53.634;9.880;2023-04-24T00:26:03;14.65;;;9.32;;
39958;SDS011;25639;53.634;9.880;2023-04-24T00:28:29;14.18;;;10.25;;
39958;SDS011;25639;53.634;9.880;2023-04-24T00:30:54;13.45;;;9.80;;
39958;SDS011;25639;53.634;9.880;2023-04-24T00:33:19;12.20;;;9.18;;
39958;SDS011;25639;53.634;9.880;2023-04-24T00:35:45;15.50;;;9.82;;
39958;SDS011;25639;53.634;9.880;2023-04-24T00:38:10;14.90;;;9.25;;
39958;SDS011;25639;53.634;9.880;2023-04-24T00:40:35;13.77;;;9.35;;
39958;SDS011;25639;53.634;9.880;2023-04-24T00:43:01;14.45;;;9.98;;
39958;SDS011;25639;53.634;9.880;2023-04-24T00:45:26;16.98;;;9.77;;
39958;SDS011;25639;53.634;9.880;2023-04-24T00:47:52;14.10;;;9.25;;
39958;SDS011;25639;53.634;9.880;2023-04-24T00:50:17;12.93;;;9.00;;
39958;SDS011;25639;53.634;9.880;2023-04-24T00:52:44;12.13;;;8.88;;
39958;SDS011;25639;53.634;9.880;2023-04-24T00:55:09;15.80;;;9.68;;
39958;SDS011;25639;53.634;9.880;2023-04-24T00:57:35;13.20;;;9.25;;
39958;SDS011;25639;53.634;9.880;2023-04-24T01:00:00;12.43;;;8.70;;
39958;SDS011;25639;53.634;9.880;2023-04-24T01:02:26;14.15;;;9.70;;
39958;SDS011;25639;53.634;9.880;2023-04-24T01:04:51;13.95;;;9.45;;
39958;SDS011;25639;53.634;9.880;2023-04-24T01:07:20;12.05;;;9.60;;
39958;SDS011;25639;53.634;9.880;2023-04-24T01:09:45;14.38;;;9.73;;
39958;SDS011;25639;53.634;9.880;2023-04-24T01:12:14;13.55;;;9.93;;
39958;SDS011;25639;53.634;9.880;2023-04-24T01:14:39;13.43;;;9.35;;
39958;SDS011;25639;53.634;9.880;2023-04-24T01:17:05;14.23;;;8.82;;
39958;SDS011;25639;53.634;9.880;2023-04-24T01:19:31;11.23;;;7.75;;
39958;SDS011;25639;53.634;9.880;2023-04-24T01:21:57;13.13;;;8.13;;
39958;SDS011;25639;53.634;9.880;2023-04-24T01:24:24;13.77;;;8.07;;
39958;SDS011;25639;53.634;9.880;2023-04-24T01:26:50;10.48;;;7.32;;
39958;SDS011;25639;53.634;9.880;2023-04-24T01:29:15;12.85;;;8.10;;
39958;SDS011;25639;53.634;9.880;2023-04-24T01:31:40;12.18;;;7.03;;
39958;SDS011;25639;53.634;9.880;2023-04-24T01:34:06;8.93;;;6.60;;
39958;SDS011;25639;53.634;9.880;2023-04-24T01:36:32;12.00;;;6.38;;
39958;SDS011;25639;53.634;9.880;2023-04-24T01:39:00;8.63;;;6.55;;
39958;SDS011;25639;53.634;9.880;2023-04-24T01:41:25;10.07;;;6.45;;
39958;SDS011;25639;53.634;9.880;2023-04-24T01:43:50;11.02;;;5.90;;
39958;SDS011;25639;53.634;9.880;2023-04-24T01:46:16;8.45;;;6.20;;
39958;SDS011;25639;53.634;9.880;2023-04-24T01:48:41;10.45;;;5.60;;
39958;SDS011;25639;53.634;9.880;2023-04-24T01:51:07;9.00;;;5.50;;
39958;SDS011;25639;53.634;9.880;2023-04-24T01:53:32;8.32;;;5.28;;
39958;SDS011;25639;53.634;9.880;2023-04-24T01:55:57;8.73;;;5.38;;
39958;SDS011;25639;53.634;9.880;2023-04-24T01:58:23;8.57;;;5.47;;
39958;SDS011;25639;53.634;9.880;2023-04-24T02:00:48;6.15;;;4.70;;
39958;SDS011;25639;53.634;9.880;2023-04-24T02:03:13;5.20;;;4.05;;
39958;SDS011;25639;53.634;9.880;2023-04-24T02:05:38;6.25;;;4.28;;
39958;SDS011;25639;53.634;9.880;2023-04-24T02:08:04;5.80;;;4.70;;
39958;SDS011;25639;53.634;9.880;2023-04-24T02:10:29;5.90;;;4.00;;
39958;SDS011;25639;53.634;9.880;2023-04-24T02:12:54;7.90;;;3.95;;
39958;SDS011;25639;53.634;9.880;2023-04-24T02:15:20;5.35;;;3.63;;
39958;SDS011;25639;53.634;9.880;2023-04-24T02:17:45;3.88;;;3.45;;
39958;SDS011;25639;53.634;9.880;2023-04-24T02:20:10;5.93;;;3.45;;
39958;SDS011;25639;53.634;9.880;2023-04-24T02:22:36;5.93;;;3.75;;
39958;SDS011;25639;53.634;9.880;2023-04-24T02:25:01;6.38;;;3.50;;
39958;SDS011;25639;53.634;9.880;2023-04-24T02:27:27;5.07;;;3.38;;
39958;SDS011;25639;53.634;9.880;2023-04-24T02:29:52;5.13;;;3.20;;
39958;SDS011;25639;53.634;9.880;2023-04-24T02:32:17;4.70;;;2.75;;
39958;SDS011;25639;53.634;9.880;2023-04-24T02:34:43;4.25;;;2.95;;
39958;SDS011;25639;53.634;9.880;2023-04-24T02:37:08;3.17;;;2.75;;
39958;SDS011;25639;53.634;9.880;2023-04-24T02:39:33;3.72;;;2.75;;
39958;SDS011;25639;53.634;9.880;2023-04-24T02:41:58;5.95;;;2.65;;
39958;SDS011;25639;53.634;9.880;2023-04-24T02:44:24;3.65;;;2.90;;
39958;SDS011;25639;53.634;9.880;2023-04-24T02:46:50;5.53;;;2.63;;
39958;SDS011;25639;53.634;9.880;2023-04-24T02:49:15;2.90;;;2.47;;
39958;SDS011;25639;53.634;9.880;2023-04-24T02:51:40;4.80;;;2.58;;
39958;SDS011;25639;53.634;9.880;2023-04-24T02:54:06;5.28;;;2.53;;
39958;SDS011;25639;53.634;9.880;2023-04-24T02:56:33;4.47;;;2.63;;
39958;SDS011;25639;53.634;9.880;2023-04-24T02:58:58;2.88;;;2.40;;
39958;SDS011;25639;53.634;9.880;2023-04-24T03:01:24;4.75;;;2.38;;
39958;SDS011;25639;53.634;9.880;2023-04-24T03:03:50;3.35;;;2.70;;
39958;SDS011;25639;53.634;9.880;2023-04-24T03:06:15;3.38;;;2.70;;
39958;SDS011;25639;53.634;9.880;2023-04-24T03:08:40;4.05;;;3.03;;
39958;SDS011;25639;53.634;9.880;2023-04-24T03:11:05;5.05;;;3.45;;
39958;SDS011;25639;53.634;9.880;2023-04-24T03:13:31;5.60;;;3.33;;
39958;SDS011;25639;53.634;9.880;2023-04-24T03:15:56;3.78;;;3.10;;
39958;SDS011;25639;53.634;9.880;2023-04-24T03:18:21;3.40;;;3.00;;
39958;SDS011;25639;53.634;9.880;2023-04-24T03:20:46;4.55;;;3.20;;
39958;SDS011;25639;53.634;9.880;2023-04-24T03:23:12;6.72;;;3.47;;
39958;SDS011;25639;53.634;9.880;2023-04-24T03:25:37;3.40;;;3.10;;
39958;SDS011;25639;53.634;9.880;2023-04-24T03:28:02;3.78;;;2.95;;
39958;SDS011;25639;53.634;9.880;2023-04-24T03:30:28;5.22;;;2.70;;
39958;SDS011;25639;53.634;9.880;2023-04-24T03:32:53;3.88;;;3.00;;
39958;SDS011;25639;53.634;9.880;2023-04-24T03:35:18;4.57;;;3.13;;
39958;SDS011;25639;53.634;9.880;2023-04-24T03:37:44;4.20;;;3.53;;
39958;SDS011;25639;53.634;9.880;2023-04-24T03:40:09;6.22;;;3.15;;
39958;SDS011;25639;53.634;9.880;2023-04-24T03:42:35;4.18;;;3.40;;
39958;SDS011;25639;53.634;9.880;2023-04-24T03:45:00;8.15;;;3.45;;
39958;SDS011;25639;53.634;9.880;2023-04-24T03:47:25;4.50;;;3.45;;
39958;SDS011;25639;53.634;9.880;2023-04-24T03:49:50;3.72;;;3.00;;
39958;SDS011;25639;53.634;9.880;2023-04-24T03:52:16;3.20;;;2.60;;
39958;SDS011;25639;53.634;9.880;2023-04-24T03:54:41;3.80;;;2.70;;
39958;SDS011;25639;53.634;9.880;2023-04-24T03:57:07;4.13;;;3.13;;
39958;SDS011;25639;53.634;9.880;2023-04-24T03:59:32;3.38;;;2.80;;
39958;SDS011;25639;53.634;9.880;2023-04-24T04:01:57;3.95;;;2.80;;
39958;SDS011;25639;53.634;9.880;2023-04-24T04:04:22;3.47;;;2.95;;
39958;SDS011;25639;53.634;9.880;2023-04-24T04:06:48;3.35;;;2.90;;
39958;SDS011;25639;53.634;9.880;2023-04-24T04:09:13;5.20;;;3.00;;
39958;SDS011;25639;53.634;9.880;2023-04-24T04:11:39;8.68;;;3.33;;
39958;SDS011;25639;53.634;9.880;2023-04-24T04:14:04;4.15;;;2.88;;
39958;SDS011;25639;53.634;9.880;2023-04-24T04:16:30;3.22;;;2.85;;
39958;SDS011;25639;53.634;9.880;2023-04-24T04:18:55;4.55;;;2.80;;
39958;SDS011;25639;53.634;9.880;2023-04-24T04:21:20;3.70;;;2.83;;
39958;SDS011;25639;53.634;9.880;2023-04-24T04:23:46;4.00;;;2.85;;
39958;SDS011;25639;53.634;9.880;2023-04-24T04:26:11;4.55;;;2.75;;
39958;SDS011;25639;53.634;9.880;2023-04-24T04:28:37;5.90;;;2.78;;
39958;SDS011;25639;53.634;9.880;2023-04-24T04:31:04;3.90;;;2.42;;
39958;SDS011;25639;53.634;9.880;2023-04-24T04:33:29;3.28;;;2.58;;
39958;SDS011;25639;53.634;9.880;2023-04-24T04:35:54;5.70;;;2.45;;
39958;SDS011;25639;53.634;9.880;2023-04-24T04:38:21;2.83;;;2.25;;
39958;SDS011;25639;53.634;9.880;2023-04-24T04:40:47;3.30;;;2.47;;
39958;SDS011;25639;53.634;9.880;2023-04-24T04:43:13;3.72;;;2.50;;
39958;SDS011;25639;53.634;9.880;2023-04-24T04:45:39;5.40;;;2.55;;
39958;SDS011;25639;53.634;9.880;2023-04-24T04:48:06;3.75;;;2.35;;
39958;SDS011;25639;53.634;9.880;2023-04-24T04:50:32;4.28;;;2.50;;
39958;SDS011;25639;53.634;9.880;2023-04-24T04:52:58;3.72;;;2.10;;
39958;SDS011;25639;53.634;9.880;2023-04-24T04:55:23;3.58;;;2.20;;
39958;SDS011;25639;53.634;9.880;2023-04-24T04:57:49;2.70;;;2.00;;
39958;SDS011;25639;53.634;9.880;2023-04-24T05:00:14;3.33;;;1.80;;
39958;SDS011;25639;53.634;9.880;2023-04-24T05:02:40;2.40;;;1.70;;
39958;SDS011;25639;53.634;9.880;2023-04-24T05:05:06;2.53;;;1.85;;
39958;SDS011;25639;53.634;9.880;2023-04-24T05:07:32;3.03;;;2.05;;
39958;SDS011;25639;53.634;9.880;2023-04-24T05:09:57;2.67;;;2.03;;
39958;SDS011;25639;53.634;9.880;2023-04-24T05:12:23;2.17;;;1.90;;
39958;SDS011;25639;53.634;9.880;2023-04-24T05:14:48;5.10;;;1.98;;
39958;SDS011;25639;53.634;9.880;2023-04-24T05:17:13;2.47;;;1.45;;
39958;SDS011;25639;53.634;9.880;2023-04-24T05:19:38;3.25;;;2.05;;
39958;SDS011;25639;53.634;9.880;2023-04-24T05:22:04;8.68;;;2.20;;
39958;SDS011;25639;53.634;9.880;2023-04-24T05:24:31;3.95;;;2.03;;
39958;SDS011;25639;53.634;9.880;2023-04-24T05:27:00;2.25;;;1.80;;
39958;SDS011;25639;53.634;9.880;2023-04-24T05:29:25;2.05;;;1.70;;
39958;SDS011;25639;53.634;9.880;2023-04-24T05:31:51;2.67;;;1.77;;
39958;SDS011;25639;53.634;9.880;2023-04-24T05:34:17;3.00;;;1.40;;
39958;SDS011;25639;53.634;9.880;2023-04-24T05:36:42;3.55;;;1.58;;
39958;SDS011;25639;53.634;9.880;2023-04-24T05:39:08;2.22;;;1.80;;
39958;SDS011;25639;53.634;9.880;2023-04-24T05:41:33;4.72;;;1.92;;
39958;SDS011;25639;53.634;9.880;2023-04-24T05:43:59;2.38;;;1.58;;
39958;SDS011;25639;53.634;9.880;2023-04-24T05:46:24;2.58;;;1.85;;
39958;SDS011;25639;53.634;9.880;2023-04-24T05:48:50;2.90;;;1.38;;
39958;SDS011;25639;53.634;9.880;2023-04-24T05:51:15;1.25;;;1.15;;
39958;SDS011;25639;53.634;9.880;2023-04-24T05:53:40;2.35;;;1.90;;
39958;SDS011;25639;53.634;9.880;2023-04-24T05:56:06;2.67;;;1.75;;
39958;SDS011;25639;53.634;9.880;2023-04-24T05:58:31;3.95;;;1.67;;
39958;SDS011;25639;53.634;9.880;2023-04-24T06:00:56;1.75;;;1.60;;
39958;SDS011;25639;53.634;9.880;2023-04-24T06:03:23;3.78;;;1.52;;
39958;SDS011;25639;53.634;9.880;2023-04-24T06:05:49;5.05;;;1.40;;
39958;SDS011;25639;53.634;9.880;2023-04-24T06:08:16;3.60;;;1.33;;
39958;SDS011;25639;53.634;9.880;2023-04-24T06:10:41;2.78;;;1.42;;
39958;SDS011;25639;53.634;9.880;2023-04-24T06:13:06;3.05;;;1.40;;
39958;SDS011;25639;53.634;9.880;2023-04-24T06:15:31;4.05;;;1.38;;
39958;SDS011;25639;53.634;9.880;2023-04-24T06:17:57;1.40;;;1.30;;
39958;SDS011;25639;53.634;9.880;2023-04-24T06:20:23;3.35;;;1.52;;
39958;SDS011;25639;53.634;9.880;2023-04-24T06:22:48;2.50;;;1.50;;
39958;SDS011;25639;53.634;9.880;2023-04-24T06:25:14;1.48;;;1.38;;
39958;SDS011;25639;53.634;9.880;2023-04-24T06:27:39;2.38;;;1.40;;
39958;SDS011;25639;53.634;9.880;2023-04-24T06:30:05;2.08;;;1.42;;
39958;SDS011;25639;53.634;9.880;2023-04-24T06:32:31;2.00;;;1.40;;
39958;SDS011;25639;53.634;9.880;2023-04-24T06:34:56;4.28;;;1.73;;
39958;SDS011;25639;53.634;9.880;2023-04-24T06:37:21;2.28;;;1.40;;
39958;SDS011;25639;53.634;9.880;2023-04-24T06:39:47;1.50;;;1.40;;
39958;SDS011;25639;53.634;9.880;2023-04-24T06:42:12;3.45;;;1.70;;
39958;SDS011;25639;53.634;9.880;2023-04-24T06:44:37;3.15;;;1.90;;
39958;SDS011;25639;53.634;9.880;2023-04-24T06:47:06;2.03;;;1.50;;
39958;SDS011;25639;53.634;9.880;2023-04-24T06:49:33;3.00;;;1.67;;
39958;SDS011;25639;53.634;9.880;2023-04-24T06:51:59;1.70;;;1.50;;
39958;SDS011;25639;53.634;9.880;2023-04-24T06:54:25;3.60;;;2.10;;
39958;SDS011;25639;53.634;9.880;2023-04-24T06:56:50;5.65;;;1.88;;
39958;SDS011;25639;53.634;9.880;2023-04-24T06:59:17;1.77;;;1.60;;
39958;SDS011;25639;53.634;9.880;2023-04-24T07:01:42;2.30;;;1.83;;
39958;SDS011;25639;53.634;9.880;2023-04-24T07:04:07;2.40;;;1.80;;
39958;SDS011;25639;53.634;9.880;2023-04-24T07:06:32;1.70;;;1.60;;
39958;SDS011;25639;53.634;9.880;2023-04-24T07:08:58;2.53;;;1.95;;
39958;SDS011;25639;53.634;9.880;2023-04-24T07:11:24;3.33;;;1.90;;
39958;SDS011;25639;53.634;9.880;2023-04-24T07:13:54;4.30;;;2.03;;
39958;SDS011;25639;53.634;9.880;2023-04-24T07:16:20;3.95;;;2.50;;
39958;SDS011;25639;53.634;9.880;2023-04-24T07:18:45;3.17;;;2.50;;
39958;SDS011;25639;53.634;9.880;2023-04-24T07:21:11;2.95;;;2.40;;
39958;SDS011;25639;53.634;9.880;2023-04-24T07:23:36;3.22;;;2.38;;
39958;SDS011;25639;53.634;9.880;2023-04-24T07:26:01;3.42;;;2.33;;
39958;SDS011;25639;53.634;9.880;2023-04-24T07:28:27;4.13;;;2.40;;
39958;SDS011;25639;53.634;9.880;2023-04-24T07:30:55;3.00;;;2.47;;
39958;SDS011;25639;53.634;9.880;2023-04-24T07:33:21;4.18;;;2.55;;
39958;SDS011;25639;53.634;9.880;2023-04-24T07:35:46;3.60;;;2.13;;
39958;SDS011;25639;53.634;9.880;2023-04-24T07:38:12;5.28;;;3.10;;
39958;SDS011;25639;53.634;9.880;2023-04-24T07:40:37;4.18;;;3.00;;
39958;SDS011;25639;53.634;9.880;2023-04-24T07:43:02;3.20;;;2.90;;
39958;SDS011;25639;53.634;9.880;2023-04-24T07:45:28;5.30;;;3.50;;
39958;SDS011;25639;53.634;9.880;2023-04-24T07:47:53;5.50;;;3.47;;
39958;SDS011;25639;53.634;9.880;2023-04-24T07:50:19;3.97;;;3.08;;
39958;SDS011;25639;53.634;9.880;2023-04-24T07:52:44;6.47;;;4.25;;
39958;SDS011;25639;53.634;9.880;2023-04-24T07:55:10;4.22;;;3.78;;
39958;SDS011;25639;53.634;9.880;2023-04-24T07:57:35;5.97;;;3.72;;
39958;SDS011;25639;53.634;9.880;2023-04-24T08:00:02;6.97;;;4.07;;
39958;SDS011;25639;53.634;9.880;2023-04-24T08:02:30;4.60;;;4.20;;
39958;SDS011;25639;53.634;9.880;2023-04-24T08:04:56;6.60;;;5.18;;
39958;SDS011;25639;53.634;9.880;2023-04-24T08:07:21;4.82;;;4.32;;
39958;SDS011;25639;53.634;9.880;2023-04-24T08:09:46;6.03;;;5.07;;
39958;SDS011;25639;53.634;9.880;2023-04-24T08:12:12;5.50;;;4.72;;
39958;SDS011;25639;53.634;9.880;2023-04-24T08:14:37;5.63;;;4.75;;
39958;SDS011;25639;53.634;9.880;2023-04-24T08:17:02;6.97;;;4.30;;
39958;SDS011;25639;53.634;9.880;2023-04-24T08:19:28;4.95;;;4.10;;
39958;SDS011;25639;53.634;9.880;2023-04-24T08:21:53;6.68;;;3.88;;
39958;SDS011;25639;53.634;9.880;2023-04-24T08:24:19;4.22;;;3.25;;
39958;SDS011;25639;53.634;9.880;2023-04-24T08:26:44;3.35;;;2.90;;
39958;SDS011;25639;53.634;9.880;2023-04-24T08:29:09;5.88;;;3.10;;
39958;SDS011;25639;53.634;9.880;2023-04-24T08:31:35;3.65;;;2.95;;
39958;SDS011;25639;53.634;9.880;2023-04-24T08:34:00;4.53;;;2.75;;
39958;SDS011;25639;53.634;9.880;2023-04-24T08:36:25;3.45;;;2.97;;
39958;SDS011;25639;53.634;9.880;2023-04-24T08:38:51;5.10;;;2.90;;
39958;SDS011;25639;53.634;9.880;2023-04-24T08:41:17;4.07;;;3.40;;
39958;SDS011;25639;53.634;9.880;2023-04-24T08:43:45;6.18;;;3.63;;
39958;SDS011;25639;53.634;9.880;2023-04-24T08:46:11;4.18;;;3.42;;
39958;SDS011;25639;53.634;9.880;2023-04-24T08:48:38;3.70;;;3.25;;
39958;SDS011;25639;53.634;9.880;2023-04-24T08:51:04;7.10;;;4.25;;
39958;SDS011;25639;53.634;9.880;2023-04-24T08:53:32;6.63;;;5.22;;
39958;SDS011;25639;53.634;9.880;2023-04-24T08:55:58;6.85;;;5.88;;
39958;SDS011;25639;53.634;9.880;2023-04-24T08:58:26;6.63;;;5.28;;
39958;SDS011;25639;53.634;9.880;2023-04-24T09:00:55;8.02;;;5.20;;
39958;SDS011;25639;53.634;9.880;2023-04-24T09:03:21;7.78;;;6.40;;
39958;SDS011;25639;53.634;9.880;2023-04-24T09:05:48;7.03;;;5.70;;
39958;SDS011;25639;53.634;9.880;2023-04-24T09:08:15;8.15;;;6.25;;
39958;SDS011;25639;53.634;9.880;2023-04-24T09:10:42;7.28;;;6.13;;
39958;SDS011;25639;53.634;9.880;2023-04-24T09:13:07;7.78;;;6.55;;
39958;SDS011;25639;53.634;9.880;2023-04-24T09:15:36;9.35;;;7.18;;
39958;SDS011;25639;53.634;9.880;2023-04-24T09:18:02;8.35;;;6.80;;
39958;SDS011;25639;53.634;9.880;2023-04-24T09:20:27;8.95;;;6.47;;
39958;SDS011;25639;53.634;9.880;2023-04-24T09:22:54;10.55;;;7.40;;
39958;SDS011;25639;53.634;9.880;2023-04-24T09:25:23;9.88;;;7.07;;
39958;SDS011;25639;53.634;9.880;2023-04-24T09:27:59;11.57;;;7.13;;
39958;SDS011;25639;53.634;9.880;2023-04-24T09:30:26;7.93;;;7.03;;
39958;SDS011;25639;53.634;9.880;2023-04-24T09:33:09;12.40;;;7.75;;
39958;SDS011;25639;53.634;9.880;2023-04-24T09:35:50;11.15;;;7.43;;
39958;SDS011;25639;53.634;9.880;2023-04-24T09:38:16;9.45;;;7.22;;
39958;SDS011;25639;53.634;9.880;2023-04-24T09:40:42;9.00;;;7.22;;
39958;SDS011;25639;53.634;9.880;2023-04-24T09:43:10;9.68;;;6.25;;
39958;SDS011;25639;53.634;9.880;2023-04-24T09:45:39;7.30;;;6.18;;
39958;SDS011;25639;53.634;9.880;2023-04-24T09:48:04;9.23;;;5.97;;
39958;SDS011;25639;53.634;9.880;2023-04-24T09:50:31;11.43;;;6.50;;
39958;SDS011;25639;53.634;9.880;2023-04-24T09:53:03;8.77;;;6.40;;
39958;SDS011;25639;53.634;9.880;2023-04-24T09:55:30;8.45;;;5.88;;
39958;SDS011;25639;53.634;9.880;2023-04-24T09:57:57;10.52;;;6.45;;
39958;SDS011;25639;53.634;9.880;2023-04-24T10:00:26;9.10;;;5.93;;
39958;SDS011;25639;53.634;9.880;2023-04-24T10:02:56;10.02;;;6.78;;
39958;SDS011;25639;53.634;9.880;2023-04-24T10:08:00;8.50;;;6.60;;
39958;SDS011;25639;53.634;9.880;2023-04-24T10:10:30;11.43;;;8.40;;
39958;SDS011;25639;53.634;9.880;2023-04-24T10:12:56;11.35;;;7.40;;
39958;SDS011;25639;53.634;9.880;2023-04-24T10:15:22;10.95;;;8.10;;
39958;SDS011;25639;53.634;9.880;2023-04-24T10:17:48;10.43;;;8.15;;
39958;SDS011;25639;53.634;9.880;2023-04-24T10:20:24;15.95;;;8.73;;
39958;SDS011;25639;53.634;9.880;2023-04-24T10:25:23;11.90;;;8.70;;
39958;SDS011;25639;53.634;9.880;2023-04-24T10:27:50;12.48;;;8.27;;
39958;SDS011;25639;53.634;9.880;2023-04-24T10:30:16;12.05;;;8.75;;
39958;SDS011;25639;53.634;9.880;2023-04-24T10:32:43;15.15;;;10.18;;
39958;SDS011;25639;53.634;9.880;2023-04-24T10:35:09;14.20;;;9.38;;
39958;SDS011;25639;53.634;9.880;2023-04-24T10:37:40;16.30;;;9.63;;
39958;SDS011;25639;53.634;9.880;2023-04-24T10:40:11;14.15;;;9.73;;
39958;SDS011;25639;53.634;9.880;2023-04-24T10:42:40;18.52;;;10.75;;
39958;SDS011;25639;53.634;9.880;2023-04-24T10:45:27;16.92;;;10.65;;
39958;SDS011;25639;53.634;9.880;2023-04-24T10:47:56;14.43;;;9.82;;
39958;SDS011;25639;53.634;9.880;2023-04-24T10:50:42;15.52;;;10.55;;
39958;SDS011;25639;53.634;9.880;2023-04-24T10:53:12;16.50;;;9.80;;
39958;SDS011;25639;53.634;9.880;2023-04-24T10:55:43;16.08;;;10.30;;
39958;SDS011;25639;53.634;9.880;2023-04-24T10:58:09;15.55;;;9.85;;
39958;SDS011;25639;53.634;9.880;2023-04-24T11:00:39;18.02;;;11.00;;
39958;SDS011;25639;53.634;9.880;2023-04-24T11:03:22;15.23;;;10.38;;
39958;SDS011;25639;53.634;9.880;2023-04-24T11:05:50;21.02;;;11.00;;
39958;SDS011;25639;53.634;9.880;2023-04-24T11:08:30;16.95;;;10.50;;
39958;SDS011;25639;53.634;9.880;2023-04-24T11:11:08;19.92;;;11.18;;
39958;SDS011;25639;53.634;9.880;2023-04-24T11:16:26;15.77;;;11.00;;
39958;SDS011;25639;53.634;9.880;2023-04-24T11:19:11;17.25;;;11.30;;
39958;SDS011;25639;53.634;9.880;2023-04-24T11:21:48;18.30;;;11.00;;
39958;SDS011;25639;53.634;9.880;2023-04-24T11:24:32;17.17;;;11.75;;
39958;SDS011;25639;53.634;9.880;2023-04-24T11:27:21;18.20;;;12.05;;
39958;SDS011;25639;53.634;9.880;2023-04-24T11:32:16;18.02;;;12.45;;
39958;SDS011;25639;53.634;9.880;2023-04-24T11:34:45;14.48;;;10.60;;
39958;SDS011;25639;53.634;9.880;2023-04-24T11:37:11;15.80;;;10.73;;
39958;SDS011;25639;53.634;9.880;2023-04-24T11:39:37;16.67;;;11.18;;
39958;SDS011;25639;53.634;9.880;2023-04-24T11:42:03;16.92;;;9.95;;
39958;SDS011;25639;53.634;9.880;2023-04-24T11:44:28;17.17;;;11.60;;
39958;SDS011;25639;53.634;9.880;2023-04-24T11:46:55;15.35;;;10.98;;
39958;SDS011;25639;53.634;9.880;2023-04-24T11:49:21;13.75;;;10.20;;
39958;SDS011;25639;53.634;9.880;2023-04-24T11:51:46;17.25;;;10.32;;
39958;SDS011;25639;53.634;9.880;2023-04-24T11:54:11;16.55;;;9.88;;
39958;SDS011;25639;53.634;9.880;2023-04-24T11:56:37;13.20;;;10.00;;
39958;SDS011;25639;53.634;9.880;2023-04-24T11:59:03;18.92;;;10.85;;
39958;SDS011;25639;53.634;9.880;2023-04-24T12:01:29;14.65;;;10.02;;
39958;SDS011;25639;53.634;9.880;2023-04-24T12:03:59;15.25;;;10.75;;
39958;SDS011;25639;53.634;9.880;2023-04-24T12:06:25;19.25;;;9.73;;
39958;SDS011;25639;53.634;9.880;2023-04-24T12:08:52;12.57;;;8.95;;
39958;SDS011;25639;53.634;9.880;2023-04-24T12:11:17;16.33;;;9.40;;
39958;SDS011;25639;53.634;9.880;2023-04-24T12:13:43;11.88;;;9.15;;
39958;SDS011;25639;53.634;9.880;2023-04-24T12:16:09;11.07;;;7.53;;
39958;SDS011;25639;53.634;9.880;2023-04-24T12:18:34;13.40;;;7.90;;
39958;SDS011;25639;53.634;9.880;2023-04-24T12:21:19;11.40;;;8.25;;
39958;SDS011;25639;53.634;9.880;2023-04-24T12:23:46;11.45;;;7.40;;
39958;SDS011;25639;53.634;9.880;2023-04-24T12:26:12;11.73;;;8.20;;
39958;SDS011;25639;53.634;9.880;2023-04-24T12:28:41;12.63;;;7.40;;
39958;SDS011;25639;53.634;9.880;2023-04-24T12:31:07;11.60;;;7.47;;
39958;SDS011;25639;53.634;9.880;2023-04-24T12:33:33;11.63;;;7.65;;
39958;SDS011;25639;53.634;9.880;2023-04-24T12:35:59;12.48;;;7.70;;
39958;SDS011;25639;53.634;9.880;2023-04-24T12:38:26;11.38;;;7.25;;
39958;SDS011;25639;53.634;9.880;2023-04-24T12:41:02;10.75;;;7.35;;
39958;SDS011;25639;53.634;9.880;2023-04-24T12:43:28;14.95;;;8.02;;
39958;SDS011;25639;53.634;9.880;2023-04-24T12:45:53;13.98;;;8.23;;
39958;SDS011;25639;53.634;9.880;2023-04-24T12:48:18;12.45;;;8.20;;
39958;SDS011;25639;53.634;9.880;2023-04-24T12:50:45;11.10;;;7.90;;
39958;SDS011;25639;53.634;9.880;2023-04-24T12:53:10;12.98;;;8.43;;
39958;SDS011;25639;53.634;9.880;2023-04-24T12:55:36;11.40;;;7.80;;
39958;SDS011;25639;53.634;9.880;2023-04-24T12:58:02;12.15;;;7.93;;
39958;SDS011;25639;53.634;9.880;2023-04-24T13:00:28;11.70;;;7.97;;
39958;SDS011;25639;53.634;9.880;2023-04-24T13:02:53;10.27;;;7.75;;
39958;SDS011;25639;53.634;9.880;2023-04-24T13:05:19;11.88;;;7.35;;
39958;SDS011;25639;53.634;9.880;2023-04-24T13:07:44;12.95;;;7.88;;
39958;SDS011;25639;53.634;9.880;2023-04-24T13:10:09;12.55;;;7.75;;
39958;SDS011;25639;53.634;9.880;2023-04-24T13:12:35;13.02;;;7.70;;
39958;SDS011;25639;53.634;9.880;2023-04-24T13:15:01;11.43;;;7.60;;
39958;SDS011;25639;53.634;9.880;2023-04-24T13:17:26;10.30;;;7.50;;
39958;SDS011;25639;53.634;9.880;2023-04-24T13:19:53;8.02;;;6.50;;
39958;SDS011;25639;53.634;9.880;2023-04-24T13:22:19;9.85;;;6.88;;
39958;SDS011;25639;53.634;9.880;2023-04-24T13:24:45;9.15;;;6.97;;
39958;SDS011;25639;53.634;9.880;2023-04-24T13:27:13;9.50;;;7.40;;
39958;SDS011;25639;53.634;9.880;2023-04-24T13:29:39;9.30;;;6.70;;
39958;SDS011;25639;53.634;9.880;2023-04-24T13:32:04;9.35;;;7.22;;
39958;SDS011;25639;53.634;9.880;2023-04-24T13:34:30;10.45;;;7.80;;
39958;SDS011;25639;53.634;9.880;2023-04-24T13:36:56;7.97;;;6.97;;
39958;SDS011;25639;53.634;9.880;2023-04-24T13:39:23;10.63;;;7.63;;
39958;SDS011;25639;53.634;9.880;2023-04-24T13:41:49;9.57;;;7.40;;
39958;SDS011;25639;53.634;9.880;2023-04-24T13:44:15;11.85;;;7.72;;
39958;SDS011;25639;53.634;9.880;2023-04-24T13:46:42;12.55;;;8.10;;
39958;SDS011;25639;53.634;9.880;2023-04-24T13:49:09;13.63;;;8.80;;
39958;SDS011;25639;53.634;9.880;2023-04-24T13:51:34;10.23;;;7.80;;
39958;SDS011;25639;53.634;9.880;2023-04-24T13:54:00;9.43;;;7.88;;
39958;SDS011;25639;53.634;9.880;2023-04-24T13:56:25;8.30;;;7.40;;
39958;SDS011;25639;53.634;9.880;2023-04-24T13:58:51;10.32;;;7.68;;
39958;SDS011;25639;53.634;9.880;2023-04-24T14:01:16;12.63;;;8.07;;
39958;SDS011;25639;53.634;9.880;2023-04-24T14:03:42;12.93;;;8.48;;
39958;SDS011;25639;53.634;9.880;2023-04-24T14:06:10;11.32;;;7.47;;
39958;SDS011;25639;53.634;9.880;2023-04-24T14:08:35;11.15;;;7.78;;
39958;SDS011;25639;53.634;9.880;2023-04-24T14:11:00;10.57;;;8.05;;
39958;SDS011;25639;53.634;9.880;2023-04-24T14:13:26;9.20;;;7.80;;
39958;SDS011;25639;53.634;9.880;2023-04-24T14:15:52;10.10;;;8.38;;
39958;SDS011;25639;53.634;9.880;2023-04-24T14:18:18;10.07;;;8.13;;
39958;SDS011;25639;53.634;9.880;2023-04-24T14:20:43;13.10;;;8.73;;
39958;SDS011;25639;53.634;9.880;2023-04-24T14:23:09;10.90;;;9.05;;
39958;SDS011;25639;53.634;9.880;2023-04-24T14:25:34;11.73;;;9.45;;
39958;SDS011;25639;53.634;9.880;2023-04-24T14:27:59;14.07;;;10.45;;
39958;SDS011;25639;53.634;9.880;2023-04-24T14:30:25;12.77;;;10.50;;
39958;SDS011;25639;53.634;9.880;2023-04-24T14:32:50;13.98;;;10.68;;
39958;SDS011;25639;53.634;9.880;2023-04-24T14:35:15;14.52;;;11.65;;
39958;SDS011;25639;53.634;9.880;2023-04-24T14:37:40;16.98;;;12.52;;
39958;SDS011;25639;53.634;9.880;2023-04-24T14:40:06;17.25;;;12.80;;
39958;SDS011;25639;53.634;9.880;2023-04-24T14:42:32;15.75;;;11.18;;
39958;SDS011;25639;53.634;9.880;2023-04-24T14:44:58;19.42;;;12.75;;
39958;SDS011;25639;53.634;9.880;2023-04-24T14:47:24;17.67;;;13.13;;